Terminal Aerodrome Forecast
Issued by NWS

Home | Current Version | Previous Version | Text Only | Print | Product List | Glossary On
Versions: 1 2 3 4 5 6 7 8 9 10 11 12 13 14 15 16 17 18 19 20 21 22 23 24 25 26
000
FTUS44 KHGX 042338
TAFSGR
TAF
KSGR 042338Z 0500/0524 36010KT P6SM VCSH OVC009
     FM050600 03011KT 6SM -RA BR VCTS OVC005CB
     FM051900 36007KT 6SM BR VCSH SCT007 OVC010=

USA.gov is the U.S. government's official web portal to all federal, state and local government web resources and services.